sensor_id;sensor_type;location;lat;lon;timestamp;temperature;humidity
47310;DHT22;33046;52.270;6.832;2022-10-16T00:01:24;14.90;99.90
47310;DHT22;33046;52.270;6.832;2022-10-16T00:03:31;14.90;99.90
47310;DHT22;33046;52.270;6.832;2022-10-16T00:05:39;14.90;99.90
47310;DHT22;33046;52.270;6.832;2022-10-16T00:07:46;14.90;99.90
47310;DHT22;33046;52.270;6.832;2022-10-16T00:09:52;14.90;99.90
47310;DHT22;33046;52.270;6.832;2022-10-16T00:12:00;14.90;99.90
47310;DHT22;33046;52.270;6.832;2022-10-16T00:14:10;14.80;99.90
47310;DHT22;33046;52.270;6.832;2022-10-16T00:16:18;14.80;99.90
47310;DHT22;33046;52.270;6.832;2022-10-16T00:18:25;14.80;99.90
47310;DHT22;33046;52.270;6.832;2022-10-16T00:20:34;14.80;99.90
47310;DHT22;33046;52.270;6.832;2022-10-16T00:22:41;14.80;99.90
47310;DHT22;33046;52.270;6.832;2022-10-16T00:24:47;14.80;99.90
47310;DHT22;33046;52.270;6.832;2022-10-16T00:26:54;14.80;99.90
47310;DHT22;33046;52.270;6.832;2022-10-16T00:29:03;14.70;99.90
47310;DHT22;33046;52.270;6.832;2022-10-16T00:31:11;14.70;99.90
47310;DHT22;33046;52.270;6.832;2022-10-16T00:33:18;14.80;99.90
47310;DHT22;33046;52.270;6.832;2022-10-16T00:35:25;14.70;99.90
47310;DHT22;33046;52.270;6.832;2022-10-16T00:37:32;14.70;99.90
47310;DHT22;33046;52.270;6.832;2022-10-16T00:39:38;14.70;99.90
47310;DHT22;33046;52.270;6.832;2022-10-16T00:41:45;14.70;99.90
47310;DHT22;33046;52.270;6.832;2022-10-16T00:43:54;14.70;99.90
47310;DHT22;33046;52.270;6.832;2022-10-16T00:46:05;14.70;99.90
47310;DHT22;33046;52.270;6.832;2022-10-16T00:48:21;14.70;99.90
47310;DHT22;33046;52.270;6.832;2022-10-16T00:50:30;14.70;99.90
47310;DHT22;33046;52.270;6.832;2022-10-16T00:52:40;14.70;99.90
47310;DHT22;33046;52.270;6.832;2022-10-16T00:54:49;14.70;99.90
47310;DHT22;33046;52.270;6.832;2022-10-16T00:56:59;14.70;99.90
47310;DHT22;33046;52.270;6.832;2022-10-16T00:59:11;14.60;99.90
47310;DHT22;33046;52.270;6.832;2022-10-16T01:01:22;14.70;99.90
47310;DHT22;33046;52.270;6.832;2022-10-16T01:03:30;14.70;99.90
47310;DHT22;33046;52.270;6.832;2022-10-16T01:05:42;14.70;99.90
47310;DHT22;33046;52.270;6.832;2022-10-16T01:07:56;14.70;99.90
47310;DHT22;33046;52.270;6.832;2022-10-16T01:10:16;14.60;99.90
47310;DHT22;33046;52.270;6.832;2022-10-16T01:12:31;14.70;99.90
47310;DHT22;33046;52.270;6.832;2022-10-16T01:14:47;14.70;99.90
47310;DHT22;33046;52.270;6.832;2022-10-16T01:17:00;14.60;99.90
47310;DHT22;33046;52.270;6.832;2022-10-16T01:19:09;14.60;99.90
47310;DHT22;33046;52.270;6.832;2022-10-16T01:21:22;14.60;99.90
47310;DHT22;33046;52.270;6.832;2022-10-16T01:23:40;14.70;99.90
47310;DHT22;33046;52.270;6.832;2022-10-16T01:25:59;14.70;99.90
47310;DHT22;33046;52.270;6.832;2022-10-16T01:28:11;14.60;99.90
47310;DHT22;33046;52.270;6.832;2022-10-16T01:30:22;14.70;99.90
47310;DHT22;33046;52.270;6.832;2022-10-16T01:32:35;14.60;99.90
47310;DHT22;33046;52.270;6.832;2022-10-16T01:34:48;14.60;99.90
47310;DHT22;33046;52.270;6.832;2022-10-16T01:37:06;14.60;99.90
47310;DHT22;33046;52.270;6.832;2022-10-16T01:39:14;14.60;99.90
47310;DHT22;33046;52.270;6.832;2022-10-16T01:41:26;14.60;99.90
47310;DHT22;33046;52.270;6.832;2022-10-16T01:43:42;14.60;99.90
47310;DHT22;33046;52.270;6.832;2022-10-16T01:45:51;14.60;99.90
47310;DHT22;33046;52.270;6.832;2022-10-16T01:48:00;14.60;99.90
47310;DHT22;33046;52.270;6.832;2022-10-16T01:50:08;14.60;99.90
47310;DHT22;33046;52.270;6.832;2022-10-16T01:52:18;14.60;99.90
47310;DHT22;33046;52.270;6.832;2022-10-16T01:54:28;14.60;99.90
47310;DHT22;33046;52.270;6.832;2022-10-16T01:56:35;14.60;99.90
47310;DHT22;33046;52.270;6.832;2022-10-16T01:58:46;14.60;99.90
47310;DHT22;33046;52.270;6.832;2022-10-16T02:00:54;14.60;99.90
47310;DHT22;33046;52.270;6.832;2022-10-16T02:03:03;14.60;99.90
47310;DHT22;33046;52.270;6.832;2022-10-16T02:05:16;14.60;99.90
47310;DHT22;33046;52.270;6.832;2022-10-16T02:07:25;14.60;99.90
47310;DHT22;33046;52.270;6.832;2022-10-16T02:09:33;14.60;99.90
47310;DHT22;33046;52.270;6.832;2022-10-16T02:11:40;14.60;99.90
47310;DHT22;33046;52.270;6.832;2022-10-16T02:13:52;14.60;99.90
47310;DHT22;33046;52.270;6.832;2022-10-16T02:16:01;14.60;99.90
47310;DHT22;33046;52.270;6.832;2022-10-16T02:18:08;14.60;99.90
47310;DHT22;33046;52.270;6.832;2022-10-16T02:20:15;14.50;99.90
47310;DHT22;33046;52.270;6.832;2022-10-16T02:22:26;14.50;99.90
47310;DHT22;33046;52.270;6.832;2022-10-16T02:24:37;14.60;99.90
47310;DHT22;33046;52.270;6.832;2022-10-16T02:26:49;14.50;99.90
47310;DHT22;33046;52.270;6.832;2022-10-16T02:29:03;14.50;99.90
47310;DHT22;33046;52.270;6.832;2022-10-16T02:31:13;14.50;99.90
47310;DHT22;33046;52.270;6.832;2022-10-16T02:33:25;14.50;99.90
47310;DHT22;33046;52.270;6.832;2022-10-16T02:35:33;14.50;99.90
47310;DHT22;33046;52.270;6.832;2022-10-16T02:37:40;14.50;99.90
47310;DHT22;33046;52.270;6.832;2022-10-16T02:39:47;14.50;99.90
47310;DHT22;33046;52.270;6.832;2022-10-16T02:41:54;14.50;99.90
47310;DHT22;33046;52.270;6.832;2022-10-16T02:44:02;14.50;99.90
47310;DHT22;33046;52.270;6.832;2022-10-16T02:46:09;14.50;99.90
47310;DHT22;33046;52.270;6.832;2022-10-16T02:48:16;14.50;99.90
47310;DHT22;33046;52.270;6.832;2022-10-16T02:50:22;14.50;99.90
47310;DHT22;33046;52.270;6.832;2022-10-16T02:52:29;14.50;99.90
47310;DHT22;33046;52.270;6.832;2022-10-16T02:54:36;14.50;99.90
47310;DHT22;33046;52.270;6.832;2022-10-16T02:56:43;14.50;99.90
47310;DHT22;33046;52.270;6.832;2022-10-16T02:58:49;14.50;99.90
47310;DHT22;33046;52.270;6.832;2022-10-16T03:00:57;14.50;99.90
47310;DHT22;33046;52.270;6.832;2022-10-16T03:03:04;14.50;99.90
47310;DHT22;33046;52.270;6.832;2022-10-16T03:05:11;14.50;99.90
47310;DHT22;33046;52.270;6.832;2022-10-16T03:07:17;14.50;99.90
47310;DHT22;33046;52.270;6.832;2022-10-16T03:09:24;14.50;99.90
47310;DHT22;33046;52.270;6.832;2022-10-16T03:11:31;14.50;99.90
47310;DHT22;33046;52.270;6.832;2022-10-16T03:13:38;14.50;99.90
47310;DHT22;33046;52.270;6.832;2022-10-16T03:15:44;14.50;99.90
47310;DHT22;33046;52.270;6.832;2022-10-16T03:17:52;14.50;99.90
47310;DHT22;33046;52.270;6.832;2022-10-16T03:19:59;14.50;99.90
47310;DHT22;33046;52.270;6.832;2022-10-16T03:22:07;14.50;99.90
47310;DHT22;33046;52.270;6.832;2022-10-16T03:24:13;14.50;99.90
47310;DHT22;33046;52.270;6.832;2022-10-16T03:26:21;14.60;99.90
47310;DHT22;33046;52.270;6.832;2022-10-16T03:28:27;14.50;99.90
47310;DHT22;33046;52.270;6.832;2022-10-16T03:30:34;14.50;99.90
47310;DHT22;33046;52.270;6.832;2022-10-16T03:32:41;14.60;99.90
47310;DHT22;33046;52.270;6.832;2022-10-16T03:34:49;14.60;99.90
47310;DHT22;33046;52.270;6.832;2022-10-16T03:36:56;14.60;99.90
47310;DHT22;33046;52.270;6.832;2022-10-16T03:39:02;14.60;99.90
47310;DHT22;33046;52.270;6.832;2022-10-16T03:41:09;14.60;99.90
47310;DHT22;33046;52.270;6.832;2022-10-16T03:43:16;14.60;99.90
47310;DHT22;33046;52.270;6.832;2022-10-16T03:45:23;14.60;99.90
47310;DHT22;33046;52.270;6.832;2022-10-16T03:47:29;14.60;99.90
47310;DHT22;33046;52.270;6.832;2022-10-16T03:49:36;14.60;99.90
47310;DHT22;33046;52.270;6.832;2022-10-16T03:51:44;14.60;99.90
47310;DHT22;33046;52.270;6.832;2022-10-16T03:53:51;14.60;99.90
47310;DHT22;33046;52.270;6.832;2022-10-16T03:55:58;14.60;99.90
47310;DHT22;33046;52.270;6.832;2022-10-16T03:58:04;14.60;99.90
47310;DHT22;33046;52.270;6.832;2022-10-16T04:00:12;14.60;99.90
47310;DHT22;33046;52.270;6.832;2022-10-16T04:02:19;14.60;99.90
47310;DHT22;33046;52.270;6.832;2022-10-16T04:04:25;14.50;99.90
47310;DHT22;33046;52.270;6.832;2022-10-16T04:06:32;14.50;99.90
47310;DHT22;33046;52.270;6.832;2022-10-16T04:08:42;14.50;99.90
47310;DHT22;33046;52.270;6.832;2022-10-16T04:10:49;14.60;99.90
47310;DHT22;33046;52.270;6.832;2022-10-16T04:12:56;14.60;99.90
47310;DHT22;33046;52.270;6.832;2022-10-16T04:15:03;14.60;99.90
47310;DHT22;33046;52.270;6.832;2022-10-16T04:17:09;14.50;99.90
47310;DHT22;33046;52.270;6.832;2022-10-16T04:19:16;14.60;99.90
47310;DHT22;33046;52.270;6.832;2022-10-16T04:21:23;14.60;99.90
47310;DHT22;33046;52.270;6.832;2022-10-16T04:23:30;14.60;99.90
47310;DHT22;33046;52.270;6.832;2022-10-16T04:25:38;14.60;99.90
47310;DHT22;33046;52.270;6.832;2022-10-16T04:27:45;14.60;99.90
47310;DHT22;33046;52.270;6.832;2022-10-16T04:29:51;14.50;99.90
47310;DHT22;33046;52.270;6.832;2022-10-16T04:31:58;14.60;99.90
47310;DHT22;33046;52.270;6.832;2022-10-16T04:34:05;14.50;99.90
47310;DHT22;33046;52.270;6.832;2022-10-16T04:36:12;14.50;99.90
47310;DHT22;33046;52.270;6.832;2022-10-16T04:38:19;14.50;99.90
47310;DHT22;33046;52.270;6.832;2022-10-16T04:40:25;14.50;99.90
47310;DHT22;33046;52.270;6.832;2022-10-16T04:42:33;14.50;99.90
47310;DHT22;33046;52.270;6.832;2022-10-16T04:44:40;14.50;99.90
47310;DHT22;33046;52.270;6.832;2022-10-16T04:46:47;14.60;99.90
47310;DHT22;33046;52.270;6.832;2022-10-16T04:48:54;14.50;99.90
47310;DHT22;33046;52.270;6.832;2022-10-16T04:51:00;14.50;99.90
47310;DHT22;33046;52.270;6.832;2022-10-16T04:53:07;14.50;99.90
47310;DHT22;33046;52.270;6.832;2022-10-16T04:55:14;14.50;99.90
47310;DHT22;33046;52.270;6.832;2022-10-16T04:57:21;14.50;99.90
47310;DHT22;33046;52.270;6.832;2022-10-16T04:59:29;14.50;99.90
47310;DHT22;33046;52.270;6.832;2022-10-16T05:01:36;14.50;99.90
47310;DHT22;33046;52.270;6.832;2022-10-16T05:03:42;14.50;99.90
47310;DHT22;33046;52.270;6.832;2022-10-16T05:05:49;14.50;99.90
47310;DHT22;33046;52.270;6.832;2022-10-16T05:07:56;14.50;99.90
47310;DHT22;33046;52.270;6.832;2022-10-16T05:10:03;14.50;99.90
47310;DHT22;33046;52.270;6.832;2022-10-16T05:12:10;14.50;99.90
47310;DHT22;33046;52.270;6.832;2022-10-16T05:14:17;14.50;99.90
47310;DHT22;33046;52.270;6.832;2022-10-16T05:16:25;14.50;99.90
47310;DHT22;33046;52.270;6.832;2022-10-16T05:18:32;14.50;99.90
47310;DHT22;33046;52.270;6.832;2022-10-16T05:20:39;14.50;99.90
47310;DHT22;33046;52.270;6.832;2022-10-16T05:22:46;14.50;99.90
47310;DHT22;33046;52.270;6.832;2022-10-16T05:24:53;14.50;99.90
47310;DHT22;33046;52.270;6.832;2022-10-16T05:27:00;14.50;99.90
47310;DHT22;33046;52.270;6.832;2022-10-16T05:29:06;14.50;99.90
47310;DHT22;33046;52.270;6.832;2022-10-16T05:31:13;14.50;99.90
47310;DHT22;33046;52.270;6.832;2022-10-16T05:33:22;14.50;99.90
47310;DHT22;33046;52.270;6.832;2022-10-16T05:35:29;14.50;99.90
47310;DHT22;33046;52.270;6.832;2022-10-16T05:37:36;14.50;99.90
47310;DHT22;33046;52.270;6.832;2022-10-16T05:39:43;14.50;99.90
47310;DHT22;33046;52.270;6.832;2022-10-16T05:41:49;14.50;99.90
47310;DHT22;33046;52.270;6.832;2022-10-16T05:43:56;14.50;99.90
47310;DHT22;33046;52.270;6.832;2022-10-16T05:46:04;14.50;99.90
47310;DHT22;33046;52.270;6.832;2022-10-16T05:48:11;14.50;99.90
47310;DHT22;33046;52.270;6.832;2022-10-16T05:50:19;14.50;99.90
47310;DHT22;33046;52.270;6.832;2022-10-16T05:52:27;14.50;99.90
47310;DHT22;33046;52.270;6.832;2022-10-16T05:54:33;14.50;99.90
47310;DHT22;33046;52.270;6.832;2022-10-16T05:56:40;14.50;99.90
47310;DHT22;33046;52.270;6.832;2022-10-16T05:58:47;14.50;99.90
47310;DHT22;33046;52.270;6.832;2022-10-16T06:00:54;14.50;99.90
47310;DHT22;33046;52.270;6.832;2022-10-16T06:03:01;14.50;99.90
47310;DHT22;33046;52.270;6.832;2022-10-16T06:05:08;14.50;99.90
47310;DHT22;33046;52.270;6.832;2022-10-16T06:07:16;14.50;99.90
47310;DHT22;33046;52.270;6.832;2022-10-16T06:09:23;14.50;99.90
47310;DHT22;33046;52.270;6.832;2022-10-16T06:11:31;14.50;99.90
47310;DHT22;33046;52.270;6.832;2022-10-16T06:13:38;14.50;99.90
47310;DHT22;33046;52.270;6.832;2022-10-16T06:15:45;14.50;99.90
47310;DHT22;33046;52.270;6.832;2022-10-16T06:17:51;14.40;99.90
47310;DHT22;33046;52.270;6.832;2022-10-16T06:19:58;14.40;99.90
47310;DHT22;33046;52.270;6.832;2022-10-16T06:22:05;14.50;99.90
47310;DHT22;33046;52.270;6.832;2022-10-16T06:24:13;14.40;99.90
47310;DHT22;33046;52.270;6.832;2022-10-16T06:26:22;14.50;99.90
47310;DHT22;33046;52.270;6.832;2022-10-16T06:28:29;14.40;99.90
47310;DHT22;33046;52.270;6.832;2022-10-16T06:30:36;14.40;99.90
47310;DHT22;33046;52.270;6.832;2022-10-16T06:32:43;14.50;99.90
47310;DHT22;33046;52.270;6.832;2022-10-16T06:34:49;14.50;99.90
47310;DHT22;33046;52.270;6.832;2022-10-16T06:36:56;14.50;99.90
47310;DHT22;33046;52.270;6.832;2022-10-16T06:39:03;14.50;99.90
47310;DHT22;33046;52.270;6.832;2022-10-16T06:41:13;14.50;99.90
47310;DHT22;33046;52.270;6.832;2022-10-16T06:43:20;14.50;99.90
47310;DHT22;33046;52.270;6.832;2022-10-16T06:45:27;14.50;99.90
47310;DHT22;33046;52.270;6.832;2022-10-16T06:47:34;14.50;99.90
47310;DHT22;33046;52.270;6.832;2022-10-16T06:49:41;14.50;99.90
47310;DHT22;33046;52.270;6.832;2022-10-16T06:51:47;14.50;99.90
47310;DHT22;33046;52.270;6.832;2022-10-16T06:53:55;14.50;99.90
47310;DHT22;33046;52.270;6.832;2022-10-16T06:56:12;14.50;99.90
47310;DHT22;33046;52.270;6.832;2022-10-16T06:58:20;14.50;99.90
47310;DHT22;33046;52.270;6.832;2022-10-16T07:00:26;14.50;99.90
47310;DHT22;33046;52.270;6.832;2022-10-16T07:02:33;14.60;99.90
47310;DHT22;33046;52.270;6.832;2022-10-16T07:04:40;14.60;99.90
47310;DHT22;33046;52.270;6.832;2022-10-16T07:06:46;14.60;99.90
47310;DHT22;33046;52.270;6.832;2022-10-16T07:08:53;14.70;99.90
47310;DHT22;33046;52.270;6.832;2022-10-16T07:11:00;14.70;99.90
47310;DHT22;33046;52.270;6.832;2022-10-16T07:13:09;14.70;99.90
47310;DHT22;33046;52.270;6.832;2022-10-16T07:15:15;14.80;99.90
47310;DHT22;33046;52.270;6.832;2022-10-16T07:17:22;14.90;99.90
47310;DHT22;33046;52.270;6.832;2022-10-16T07:19:29;14.90;99.90
47310;DHT22;33046;52.270;6.832;2022-10-16T07:21:37;15.00;99.90
47310;DHT22;33046;52.270;6.832;2022-10-16T07:23:44;15.10;99.90
47310;DHT22;33046;52.270;6.832;2022-10-16T07:25:54;15.10;99.90
47310;DHT22;33046;52.270;6.832;2022-10-16T07:28:01;15.20;99.90
47310;DHT22;33046;52.270;6.832;2022-10-16T07:30:10;15.20;99.90
47310;DHT22;33046;52.270;6.832;2022-10-16T07:32:16;15.20;99.90
47310;DHT22;33046;52.270;6.832;2022-10-16T07:34:23;15.20;99.90
47310;DHT22;33046;52.270;6.832;2022-10-16T07:36:30;15.20;99.90
47310;DHT22;33046;52.270;6.832;2022-10-16T07:38:37;15.30;99.90
47310;DHT22;33046;52.270;6.832;2022-10-16T07:40:44;15.30;99.90
47310;DHT22;33046;52.270;6.832;2022-10-16T07:42:51;15.30;99.90
47310;DHT22;33046;52.270;6.832;2022-10-16T07:44:58;15.30;99.90
47310;DHT22;33046;52.270;6.832;2022-10-16T07:47:06;15.30;99.90
47310;DHT22;33046;52.270;6.832;2022-10-16T07:49:13;15.30;99.90
47310;DHT22;33046;52.270;6.832;2022-10-16T07:51:21;15.30;99.90
47310;DHT22;33046;52.270;6.832;2022-10-16T07:53:28;15.40;99.90
47310;DHT22;33046;52.270;6.832;2022-10-16T07:55:35;15.50;99.90
47310;DHT22;33046;52.270;6.832;2022-10-16T07:57:41;15.50;99.90
47310;DHT22;33046;52.270;6.832;2022-10-16T07:59:48;15.50;99.90
47310;DHT22;33046;52.270;6.832;2022-10-16T08:01:55;15.50;99.90
47310;DHT22;33046;52.270;6.832;2022-10-16T08:04:03;15.50;99.90
47310;DHT22;33046;52.270;6.832;2022-10-16T08:06:17;15.60;99.90
47310;DHT22;33046;52.270;6.832;2022-10-16T08:08:25;15.60;99.90
47310;DHT22;33046;52.270;6.832;2022-10-16T08:10:32;15.70;99.90
47310;DHT22;33046;52.270;6.832;2022-10-16T08:12:38;15.70;99.90
47310;DHT22;33046;52.270;6.832;2022-10-16T08:14:45;15.70;99.90
47310;DHT22;33046;52.270;6.832;2022-10-16T08:16:52;15.80;99.90
47310;DHT22;33046;52.270;6.832;2022-10-16T08:18:59;15.90;99.90
47310;DHT22;33046;52.270;6.832;2022-10-16T08:21:13;15.90;99.90
47310;DHT22;33046;52.270;6.832;2022-10-16T08:23:22;15.90;99.90
47310;DHT22;33046;52.270;6.832;2022-10-16T08:25:29;15.90;99.90
47310;DHT22;33046;52.270;6.832;2022-10-16T08:27:36;16.00;99.90
47310;DHT22;33046;52.270;6.832;2022-10-16T08:29:43;16.00;99.90
47310;DHT22;33046;52.270;6.832;2022-10-16T08:31:49;16.00;99.90
47310;DHT22;33046;52.270;6.832;2022-10-16T08:33:56;16.00;99.90
47310;DHT22;33046;52.270;6.832;2022-10-16T08:36:04;16.10;99.90
47310;DHT22;33046;52.270;6.832;2022-10-16T08:38:12;16.10;99.90
47310;DHT22;33046;52.270;6.832;2022-10-16T08:40:22;16.10;99.90
47310;DHT22;33046;52.270;6.832;2022-10-16T08:42:49;16.20;99.90
47310;DHT22;33046;52.270;6.832;2022-10-16T08:45:19;16.20;99.90
47310;DHT22;33046;52.270;6.832;2022-10-16T08:47:39;16.30;99.90
47310;DHT22;33046;52.270;6.832;2022-10-16T08:49:56;16.30;99.90
47310;DHT22;33046;52.270;6.832;2022-10-16T08:52:03;16.30;99.90
47310;DHT22;33046;52.270;6.832;2022-10-16T08:54:22;16.30;99.90
47310;DHT22;33046;52.270;6.832;2022-10-16T08:56:32;16.40;99.90
47310;DHT22;33046;52.270;6.832;2022-10-16T08:58:39;16.40;99.90
47310;DHT22;33046;52.270;6.832;2022-10-16T09:00:48;16.40;99.90
47310;DHT22;33046;52.270;6.832;2022-10-16T09:03:04;16.50;99.90
47310;DHT22;33046;52.270;6.832;2022-10-16T09:05:52;16.50;99.90
47310;DHT22;33046;52.270;6.832;2022-10-16T09:08:05;16.60;99.90
47310;DHT22;33046;52.270;6.832;2022-10-16T09:10:24;16.60;99.90
47310;DHT22;33046;52.270;6.832;2022-10-16T09:12:37;16.70;99.90
47310;DHT22;33046;52.270;6.832;2022-10-16T09:14:56;16.70;99.90
47310;DHT22;33046;52.270;6.832;2022-10-16T09:17:18;16.70;99.90
47310;DHT22;33046;52.270;6.832;2022-10-16T09:19:31;16.80;99.90
47310;DHT22;33046;52.270;6.832;2022-10-16T09:21:41;16.80;99.90
47310;DHT22;33046;52.270;6.832;2022-10-16T09:23:49;16.90;99.90
47310;DHT22;33046;52.270;6.832;2022-10-16T09:25:58;16.80;99.90
47310;DHT22;33046;52.270;6.832;2022-10-16T09:28:05;16.90;99.90
47310;DHT22;33046;52.270;6.832;2022-10-16T09:30:15;16.90;99.90
47310;DHT22;33046;52.270;6.832;2022-10-16T09:32:23;16.90;99.90
47310;DHT22;33046;52.270;6.832;2022-10-16T09:34:32;16.90;99.90
47310;DHT22;33046;52.270;6.832;2022-10-16T09:36:41;17.00;99.90
47310;DHT22;33046;52.270;6.832;2022-10-16T09:38:49;17.00;99.90
47310;DHT22;33046;52.270;6.832;2022-10-16T09:40:58;17.00;99.90
47310;DHT22;33046;52.270;6.832;2022-10-16T09:43:19;16.90;99.90
47310;DHT22;33046;52.270;6.832;2022-10-16T09:45:27;16.90;99.90
47310;DHT22;33046;52.270;6.832;2022-10-16T09:47:38;16.90;99.90
47310;DHT22;33046;52.270;6.832;2022-10-16T09:49:54;16.90;99.90
47310;DHT22;33046;52.270;6.832;2022-10-16T09:52:04;16.90;99.90
47310;DHT22;33046;52.270;6.832;2022-10-16T09:54:14;16.80;99.90
47310;DHT22;33046;52.270;6.832;2022-10-16T09:56:25;16.80;99.90
47310;DHT22;33046;52.270;6.832;2022-10-16T09:58:32;16.90;99.90
47310;DHT22;33046;52.270;6.832;2022-10-16T10:00:41;16.90;99.90
47310;DHT22;33046;52.270;6.832;2022-10-16T10:02:49;16.90;99.90
47310;DHT22;33046;52.270;6.832;2022-10-16T10:04:56;16.90;99.90
47310;DHT22;33046;52.270;6.832;2022-10-16T10:07:03;17.00;99.90
47310;DHT22;33046;52.270;6.832;2022-10-16T10:09:18;17.00;99.90
47310;DHT22;33046;52.270;6.832;2022-10-16T10:11:44;17.10;99.90
47310;DHT22;33046;52.270;6.832;2022-10-16T10:14:03;17.20;99.90
47310;DHT22;33046;52.270;6.832;2022-10-16T10:16:10;17.20;99.90
47310;DHT22;33046;52.270;6.832;2022-10-16T10:18:18;17.10;99.80
47310;DHT22;33046;52.270;6.832;2022-10-16T10:20:27;17.20;99.90
47310;DHT22;33046;52.270;6.832;2022-10-16T10:22:40;17.20;99.90
47310;DHT22;33046;52.270;6.832;2022-10-16T10:25:00;17.20;99.70
47310;DHT22;33046;52.270;6.832;2022-10-16T10:27:13;17.20;99.20
47310;DHT22;33046;52.270;6.832;2022-10-16T10:29:29;17.20;98.90
47310;DHT22;33046;52.270;6.832;2022-10-16T10:31:42;17.20;99.00
47310;DHT22;33046;52.270;6.832;2022-10-16T10:33:55;17.40;99.60
47310;DHT22;33046;52.270;6.832;2022-10-16T10:36:12;17.40;99.60
47310;DHT22;33046;52.270;6.832;2022-10-16T10:38:28;17.30;99.10
47310;DHT22;33046;52.270;6.832;2022-10-16T10:40:43;17.30;98.80
47310;DHT22;33046;52.270;6.832;2022-10-16T10:42:57;17.20;98.40
47310;DHT22;33046;52.270;6.832;2022-10-16T10:45:18;17.30;98.30
47310;DHT22;33046;52.270;6.832;2022-10-16T10:47:34;17.30;97.90
47310;DHT22;33046;52.270;6.832;2022-10-16T10:49:52;17.40;98.40
47310;DHT22;33046;52.270;6.832;2022-10-16T10:52:13;17.40;98.50
47310;DHT22;33046;52.270;6.832;2022-10-16T10:54:35;17.40;98.80
47310;DHT22;33046;52.270;6.832;2022-10-16T10:56:48;17.40;98.60
47310;DHT22;33046;52.270;6.832;2022-10-16T10:59:05;17.40;98.20
47310;DHT22;33046;52.270;6.832;2022-10-16T11:01:15;17.40;97.60
47310;DHT22;33046;52.270;6.832;2022-10-16T11:03:35;17.40;97.70
47310;DHT22;33046;52.270;6.832;2022-10-16T11:05:46;17.40;97.90
47310;DHT22;33046;52.270;6.832;2022-10-16T11:07:59;17.40;97.90
47310;DHT22;33046;52.270;6.832;2022-10-16T11:10:12;17.50;97.60
47310;DHT22;33046;52.270;6.832;2022-10-16T11:12:22;17.40;97.20
47310;DHT22;33046;52.270;6.832;2022-10-16T11:14:36;17.50;96.70
47310;DHT22;33046;52.270;6.832;2022-10-16T11:16:49;17.50;96.80
47310;DHT22;33046;52.270;6.832;2022-10-16T11:19:02;17.60;96.70
47310;DHT22;33046;52.270;6.832;2022-10-16T11:21:13;17.60;97.10
47310;DHT22;33046;52.270;6.832;2022-10-16T11:23:25;17.50;96.70
47310;DHT22;33046;52.270;6.832;2022-10-16T11:25:33;17.60;97.20
47310;DHT22;33046;52.270;6.832;2022-10-16T11:27:43;17.60;96.00
47310;DHT22;33046;52.270;6.832;2022-10-16T11:29:55;17.70;95.90
47310;DHT22;33046;52.270;6.832;2022-10-16T11:32:17;17.60;95.80
47310;DHT22;33046;52.270;6.832;2022-10-16T11:34:29;17.60;95.50
47310;DHT22;33046;52.270;6.832;2022-10-16T11:36:40;17.70;95.50
47310;DHT22;33046;52.270;6.832;2022-10-16T11:38:52;17.70;95.50
47310;DHT22;33046;52.270;6.832;2022-10-16T11:41:03;17.70;95.40
47310;DHT22;33046;52.270;6.832;2022-10-16T11:43:15;17.70;95.30
47310;DHT22;33046;52.270;6.832;2022-10-16T11:45:29;17.70;95.50
47310;DHT22;33046;52.270;6.832;2022-10-16T11:47:41;17.70;95.30
47310;DHT22;33046;52.270;6.832;2022-10-16T11:50:13;17.80;95.60
47310;DHT22;33046;52.270;6.832;2022-10-16T11:52:28;17.90;95.60
47310;DHT22;33046;52.270;6.832;2022-10-16T11:54:41;18.00;95.20
47310;DHT22;33046;52.270;6.832;2022-10-16T11:56:53;18.00;95.20
47310;DHT22;33046;52.270;6.832;2022-10-16T11:59:03;18.00;94.40
47310;DHT22;33046;52.270;6.832;2022-10-16T12:01:18;18.10;94.00
47310;DHT22;33046;52.270;6.832;2022-10-16T12:03:30;18.20;94.10
47310;DHT22;33046;52.270;6.832;2022-10-16T12:05:52;18.20;93.50
47310;DHT22;33046;52.270;6.832;2022-10-16T12:08:08;18.20;94.20
47310;DHT22;33046;52.270;6.832;2022-10-16T12:10:21;18.30;94.00
47310;DHT22;33046;52.270;6.832;2022-10-16T12:12:38;18.30;94.60
47310;DHT22;33046;52.270;6.832;2022-10-16T12:14:45;18.30;94.60
47310;DHT22;33046;52.270;6.832;2022-10-16T12:17:23;18.30;94.20
47310;DHT22;33046;52.270;6.832;2022-10-16T12:19:31;18.30;94.10
47310;DHT22;33046;52.270;6.832;2022-10-16T12:21:38;18.30;94.20
47310;DHT22;33046;52.270;6.832;2022-10-16T12:23:50;18.30;94.00
47310;DHT22;33046;52.270;6.832;2022-10-16T12:25:59;18.30;94.00
47310;DHT22;33046;52.270;6.832;2022-10-16T12:28:19;18.40;94.00
47310;DHT22;33046;52.270;6.832;2022-10-16T12:30:28;18.40;94.70
47310;DHT22;33046;52.270;6.832;2022-10-16T12:32:38;18.40;95.60
47310;DHT22;33046;52.270;6.832;2022-10-16T12:34:53;18.30;94.00
47310;DHT22;33046;52.270;6.832;2022-10-16T12:37:10;18.30;94.60
47310;DHT22;33046;52.270;6.832;2022-10-16T12:39:21;18.30;94.30
47310;DHT22;33046;52.270;6.832;2022-10-16T12:41:30;18.30;94.30
47310;DHT22;33046;52.270;6.832;2022-10-16T12:43:39;18.30;93.70
47310;DHT22;33046;52.270;6.832;2022-10-16T12:45:46;18.20;93.60
47310;DHT22;33046;52.270;6.832;2022-10-16T12:47:55;18.20;94.10
47310;DHT22;33046;52.270;6.832;2022-10-16T12:50:03;18.20;93.60
47310;DHT22;33046;52.270;6.832;2022-10-16T12:52:36;18.20;94.30
47310;DHT22;33046;52.270;6.832;2022-10-16T12:54:43;18.10;93.90
47310;DHT22;33046;52.270;6.832;2022-10-16T12:57:02;18.20;94.40
47310;DHT22;33046;52.270;6.832;2022-10-16T12:59:21;18.20;94.10
47310;DHT22;33046;52.270;6.832;2022-10-16T13:01:41;18.20;94.20
47310;DHT22;33046;52.270;6.832;2022-10-16T13:04:16;18.20;93.80
47310;DHT22;33046;52.270;6.832;2022-10-16T13:06:33;18.30;94.40
47310;DHT22;33046;52.270;6.832;2022-10-16T13:09:02;18.30;93.00
47310;DHT22;33046;52.270;6.832;2022-10-16T13:11:20;18.30;93.70
47310;DHT22;33046;52.270;6.832;2022-10-16T13:13:48;18.30;93.00
47310;DHT22;33046;52.270;6.832;2022-10-16T13:16:08;18.40;93.30
47310;DHT22;33046;52.270;6.832;2022-10-16T13:18:22;18.40;93.40
47310;DHT22;33046;52.270;6.832;2022-10-16T13:20:36;18.30;92.20
47310;DHT22;33046;52.270;6.832;2022-10-16T13:22:49;18.30;92.80
47310;DHT22;33046;52.270;6.832;2022-10-16T13:25:10;18.30;92.70
47310;DHT22;33046;52.270;6.832;2022-10-16T13:27:29;18.30;92.30
47310;DHT22;33046;52.270;6.832;2022-10-16T13:29:41;18.20;91.70
47310;DHT22;33046;52.270;6.832;2022-10-16T13:31:48;18.20;91.60
47310;DHT22;33046;52.270;6.832;2022-10-16T13:33:56;18.20;91.60
47310;DHT22;33046;52.270;6.832;2022-10-16T13:36:06;18.20;91.90
47310;DHT22;33046;52.270;6.832;2022-10-16T13:38:14;18.10;91.20
47310;DHT22;33046;52.270;6.832;2022-10-16T13:40:23;18.10;91.70
47310;DHT22;33046;52.270;6.832;2022-10-16T13:42:30;18.10;91.80